Terminal Aerodrome Forecast
Issued by NWS Greer, SC

Home | Current Version | Previous Version | Text Only | Print | Product List | Glossary On
Versions: 1 2 3 4 5 6 7 8 9 10 11 12 13 14 15 16 17 18 19 20 21 22
000
FTUS42 KGSP 171720
TAFAVL
TAF
KAVL 171720Z 1718/1818 06004KT P6SM SKC
     FM181000 00000KT 2SM BR SCT003
     FM181300 00000KT P6SM FEW250
     FM181700 11004KT P6SM SKC=

USA.gov is the U.S. government's official web portal to all federal, state and local government web resources and services.